Time;durP1;ratioP1;P1;durP2;ratioP2;P2;SDS_P1;SDS_P2;PMS_P1;PMS_P2;Temp;Humidity;BMP_temperature;BMP_pressure;BME280_temperature;BME280_humidity;BME280_pressure;Samples;Min_cycle;Max_cycle;Signal;HPM_P1;HPM_P2
2024/02/21 00:01:53;;;;;;;31.40;13.30;;;;;;;8.33;100.00;101406.78;5004842;28;20042;-84
2024/02/21 00:04:19;;;;;;;31.08;13.23;;;;;;;8.30;100.00;101408.47;4979837;28;20046;-82
2024/02/21 00:06:46;;;;;;;29.27;13.18;;;;;;;8.34;100.00;101403.28;5022941;28;20431;-83
2024/02/21 00:09:13;;;;;;;24.30;12.52;;;;;;;8.32;100.00;101407.63;4996445;28;20045;-83
2024/02/21 00:11:40;;;;;;;25.23;11.90;;;;;;;8.29;100.00;101399.75;4997855;28;20044;-82
2024/02/21 00:14:06;;;;;;;24.02;13.85;;;;;;;8.34;100.00;101405.03;5000517;28;20045;-83
2024/02/21 00:16:33;;;;;;;26.40;12.05;;;;;;;8.35;100.00;101393.75;5003626;28;20042;-82
2024/02/21 00:19:00;;;;;;;23.52;12.93;;;;;;;8.35;100.00;101388.53;5012847;28;20050;-82
2024/02/21 00:21:26;;;;;;;22.65;13.60;;;;;;;8.33;100.00;101385.91;5006816;28;20069;-82
2024/02/21 00:23:53;;;;;;;33.13;13.35;;;;;;;8.31;100.00;101382.38;4996917;28;20033;-82
2024/02/21 00:26:19;;;;;;;26.20;12.45;;;;;;;8.32;100.00;101381.53;4973114;28;20047;-83
2024/02/21 00:28:46;;;;;;;27.42;13.55;;;;;;;8.32;100.00;101372.81;5003202;28;20038;-82
2024/02/21 00:31:13;;;;;;;26.33;13.20;;;;;;;8.34;100.00;101377.19;4972904;28;20054;-82
2024/02/21 00:33:39;;;;;;;34.20;15.07;;;;;;;8.34;100.00;101373.72;4994956;28;20041;-82
2024/02/21 00:36:06;;;;;;;29.35;12.93;;;;;;;8.30;100.00;101364.97;4993400;28;20046;-82
2024/02/21 00:38:35;;;;;;;30.85;13.38;;;;;;;8.31;100.00;101366.75;4994416;28;20129;-83
2024/02/21 00:41:02;;;;;;;34.47;15.35;;;;;;;8.32;100.00;101368.50;4977573;28;20072;-83
2024/02/21 00:43:28;;;;;;;30.30;13.38;;;;;;;8.28;100.00;101359.75;4997590;28;20142;-82
2024/02/21 00:45:55;;;;;;;28.90;13.52;;;;;;;8.31;100.00;101358.91;5011767;28;20042;-83
2024/02/21 00:48:21;;;;;;;28.52;13.57;;;;;;;8.29;100.00;101363.22;4979185;28;20037;-82
2024/02/21 00:50:48;;;;;;;30.88;14.05;;;;;;;8.28;100.00;101361.50;4980479;28;20046;-81
2024/02/21 00:53:14;;;;;;;29.75;13.77;;;;;;;8.33;100.00;101352.00;5010979;28;20049;-83
2024/02/21 00:55:43;;;;;;;22.77;12.70;;;;;;;8.31;100.00;101337.19;4982662;28;20736;-82
2024/02/21 00:58:10;;;;;;;30.23;13.75;;;;;;;8.30;100.00;101331.06;4973382;28;20056;-82
2024/02/21 01:00:36;;;;;;;29.33;14.50;;;;;;;8.31;100.00;101329.34;4994911;28;20493;-83
2024/02/21 01:03:03;;;;;;;24.38;14.50;;;;;;;8.34;100.00;101326.75;4991490;28;20050;-82
2024/02/21 01:05:30;;;;;;;23.50;13.02;;;;;;;8.30;100.00;101330.19;4993621;28;20066;-82
2024/02/21 01:07:57;;;;;;;28.95;14.60;;;;;;;8.36;100.00;101323.31;4981881;28;20522;-82
2024/02/21 01:10:24;;;;;;;25.08;14.60;;;;;;;8.38;100.00;101331.16;4985735;28;20064;-81
2024/02/21 01:12:51;;;;;;;26.00;13.70;;;;;;;8.38;100.00;101331.16;4993734;28;20527;-84
2024/02/21 01:15:17;;;;;;;28.08;14.57;;;;;;;8.40;100.00;101312.06;4993104;28;20470;-83
2024/02/21 01:17:44;;;;;;;22.75;13.23;;;;;;;8.44;100.00;101302.53;4993182;28;20068;-82
2024/02/21 01:20:11;;;;;;;24.83;14.15;;;;;;;8.41;100.00;101311.19;4986878;28;20092;-83
2024/02/21 01:22:38;;;;;;;31.05;14.15;;;;;;;8.37;100.00;101311.13;5026832;28;20080;-81
2024/02/21 01:25:05;;;;;;;25.60;14.05;;;;;;;8.41;100.00;101308.59;4999359;28;20073;-81
2024/02/21 01:27:32;;;;;;;30.20;14.80;;;;;;;8.43;100.00;101300.78;4997695;28;20164;-82
2024/02/21 01:29:58;;;;;;;23.77;14.38;;;;;;;8.48;100.00;101308.69;5019041;28;20513;-82
2024/02/21 01:32:25;;;;;;;29.95;14.55;;;;;;;8.47;100.00;101305.19;5010854;28;20132;-83
2024/02/21 01:34:52;;;;;;;27.10;15.25;;;;;;;8.42;100.00;101292.09;5007225;28;20459;-82
2024/02/21 01:37:19;;;;;;;31.80;15.23;;;;;;;8.47;100.00;101294.75;5021850;28;20041;-81
2024/02/21 01:39:45;;;;;;;28.88;16.25;;;;;;;8.50;100.00;101293.91;5017540;28;20054;-81
2024/02/21 01:42:12;;;;;;;26.98;14.10;;;;;;;8.51;100.00;101293.91;5014559;28;20049;-82
2024/02/21 01:44:38;;;;;;;26.02;14.45;;;;;;;8.52;100.00;101287.84;5008978;28;20530;-82
2024/02/21 01:47:05;;;;;;;24.90;13.35;;;;;;;8.52;100.00;101294.81;5011237;28;20404;-83
2024/02/21 01:49:32;;;;;;;27.27;13.98;;;;;;;8.52;100.00;101287.84;4999980;28;20037;-81
2024/02/21 01:51:58;;;;;;;27.52;12.95;;;;;;;8.49;100.00;101282.63;4997782;28;20045;-82
2024/02/21 01:54:28;;;;;;;37.50;15.20;;;;;;;8.47;100.00;101273.88;5008177;28;20144;-82
2024/02/21 01:56:55;;;;;;;33.60;15.38;;;;;;;8.52;100.00;101287.84;4994408;28;20041;-82
2024/02/21 01:59:22;;;;;;;25.67;14.10;;;;;;;8.54;100.00;101283.53;4999322;28;20046;-83
2024/02/21 02:01:51;;;;;;;26.80;12.63;;;;;;;8.54;100.00;101267.88;5007535;28;20092;-82
2024/02/21 02:04:18;;;;;;;25.98;13.05;;;;;;;8.55;100.00;101269.63;4990472;28;20056;-83
2024/02/21 02:06:44;;;;;;;22.77;13.23;;;;;;;8.56;100.00;101273.09;4994998;28;20053;-84
2024/02/21 02:09:11;;;;;;;25.73;13.05;;;;;;;8.55;100.00;101261.81;4998265;28;20468;-83
2024/02/21 02:11:37;;;;;;;23.60;13.63;;;;;;;8.59;100.00;101271.41;5012033;28;20049;-82
2024/02/21 02:14:04;;;;;;;23.92;13.75;;;;;;;8.64;100.00;101266.22;4980137;28;20779;-81
2024/02/21 02:16:31;;;;;;;25.75;12.57;;;;;;;8.62;100.00;101262.72;5004384;28;20143;-82
2024/02/21 02:18:57;;;;;;;30.95;13.93;;;;;;;8.59;100.00;101253.13;5011041;28;20041;-82
2024/02/21 02:21:40;;;;;;;26.98;16.02;;;;;;;8.56;100.00;101242.66;4973158;28;20076;-84
2024/02/21 02:24:08;;;;;;;24.30;14.17;;;;;;;8.60;100.00;101246.16;4972973;28;20054;-82
2024/02/21 02:26:34;;;;;;;26.05;13.93;;;;;;;8.56;100.00;101233.97;4986238;28;20388;-83
2024/02/21 02:29:03;;;;;;;23.63;12.88;;;;;;;8.57;100.00;101230.50;4978985;28;20140;-84
2024/02/21 02:31:28;;;;;;;29.40;14.23;;;;;;;8.55;100.00;101224.38;4993574;28;20120;-84
2024/02/21 02:33:55;;;;;;;35.92;15.90;;;;;;;8.60;100.00;101226.19;4980618;28;20176;-85
2024/02/21 02:36:21;;;;;;;30.90;13.75;;;;;;;8.57;100.00;101217.44;4995490;28;20071;-83
2024/02/21 02:38:48;;;;;;;28.67;14.07;;;;;;;8.56;100.00;101221.78;4992520;28;20549;-83
2024/02/21 02:41:14;;;;;;;22.38;13.90;;;;;;;8.63;100.00;101217.50;4975703;28;20100;-84
2024/02/21 02:43:41;;;;;;;22.02;12.82;;;;;;;8.53;100.00;101211.31;4975541;28;20561;-82
2024/02/21 02:46:07;;;;;;;31.15;14.38;;;;;;;8.56;100.00;101202.63;4966902;28;20050;-83
2024/02/21 02:48:34;;;;;;;26.25;15.70;;;;;;;8.59;100.00;101200.94;4978572;28;20054;-84
2024/02/21 02:51:00;;;;;;;32.67;16.23;;;;;;;8.54;100.00;101194.81;4984227;28;20088;-82
2024/02/21 02:53:27;;;;;;;23.23;12.80;;;;;;;8.61;100.00;101190.50;4977617;28;20103;-82
2024/02/21 02:55:53;;;;;;;23.52;14.23;;;;;;;8.58;100.00;101196.56;4990730;28;20593;-82
2024/02/21 02:58:20;;;;;;;25.48;13.35;;;;;;;8.61;100.00;101193.13;4994983;28;20121;-83
2024/02/21 03:00:48;;;;;;;21.95;13.32;;;;;;;8.58;100.00;101187.88;4994541;28;20474;-82
2024/02/21 03:03:14;;;;;;;26.30;13.50;;;;;;;8.58;100.00;101187.88;4983360;28;20050;-82
2024/02/21 03:05:44;;;;;;;19.80;13.48;;;;;;;8.55;100.00;101177.41;4977009;28;20050;-83
2024/02/21 03:08:10;;;;;;;21.92;13.65;;;;;;;8.59;100.00;101171.34;4985824;28;20053;-82
2024/02/21 03:10:37;;;;;;;30.65;13.70;;;;;;;8.58;100.00;101161.78;4981144;28;20408;-82
2024/02/21 03:13:04;;;;;;;26.20;14.50;;;;;;;8.58;100.00;101161.78;4978762;28;20058;-85
2024/02/21 03:15:31;;;;;;;26.33;12.82;;;;;;;8.56;100.00;101140.88;4989043;28;20767;-82
2024/02/21 03:17:57;;;;;;;22.05;13.02;;;;;;;8.54;100.00;101123.47;4992834;28;20058;-82
2024/02/21 03:20:24;;;;;;;25.33;13.02;;;;;;;8.60;100.00;101128.72;4978175;28;20058;-81
2024/02/21 03:22:50;;;;;;;31.80;14.45;;;;;;;8.54;100.00;101119.13;4981626;28;20083;-82
2024/02/21 03:25:17;;;;;;;22.92;13.30;;;;;;;8.54;100.00;101105.19;4994582;28;20069;-82
2024/02/21 03:27:44;;;;;;;22.75;13.20;;;;;;;8.50;100.00;101112.16;4991667;28;20055;-82
2024/02/21 03:30:12;;;;;;;28.02;14.98;;;;;;;8.52;100.00;101097.38;4994913;28;20052;-81
2024/02/21 03:32:39;;;;;;;29.55;14.48;;;;;;;8.52;100.00;101109.53;4976954;28;20072;-82
2024/02/21 03:35:06;;;;;;;19.83;12.45;;;;;;;8.54;100.00;101105.19;4995162;28;20105;-81
2024/02/21 03:37:33;;;;;;;21.92;12.57;;;;;;;8.54;100.00;101105.19;4995516;28;20049;-82
2024/02/21 03:39:59;;;;;;;24.73;14.13;;;;;;;8.57;100.00;101094.78;4991667;28;20052;-83
2024/02/21 03:42:29;;;;;;;26.70;13.65;;;;;;;8.59;100.00;101086.13;4975001;28;20045;-83
2024/02/21 03:44:55;;;;;;;25.05;13.13;;;;;;;8.58;100.00;101081.75;4987418;28;20054;-83
2024/02/21 03:47:22;;;;;;;25.60;13.77;;;;;;;8.56;100.00;101082.59;5006193;28;20072;-83
2024/02/21 03:49:51;;;;;;;25.77;13.98;;;;;;;8.55;100.00;101086.06;4984369;28;20493;-83
2024/02/21 03:52:17;;;;;;;21.90;12.60;;;;;;;8.61;100.00;101093.94;4989124;28;20136;-83
2024/02/21 03:54:44;;;;;;;29.15;14.23;;;;;;;8.58;100.00;101089.59;5007490;28;20073;-83
2024/02/21 03:57:11;;;;;;;27.70;13.88;;;;;;;8.56;100.00;101085.22;4982058;28;20058;-83
2024/02/21 03:59:39;;;;;;;22.95;14.50;;;;;;;8.61;100.00;101105.25;4995116;28;20042;-82
2024/02/21 04:02:08;;;;;;;22.45;13.00;;;;;;;8.61;100.00;101100.03;4985908;28;20042;-83
2024/02/21 04:04:37;;;;;;;25.95;12.60;;;;;;;8.59;100.00;101100.88;4994455;28;20092;-82
2024/02/21 04:07:06;;;;;;;25.02;12.20;;;;;;;8.61;100.00;101122.66;4992106;28;20038;-82
2024/02/21 04:09:34;;;;;;;25.58;13.40;;;;;;;8.62;100.00;101132.22;4980127;28;20092;-83
2024/02/21 04:12:01;;;;;;;23.42;13.13;;;;;;;8.64;100.00;101129.63;4981673;28;20048;-82
2024/02/21 04:14:28;;;;;;;23.90;12.77;;;;;;;8.64;100.00;101132.25;4977279;28;20068;-82
2024/02/21 04:16:54;;;;;;;26.27;12.30;;;;;;;8.69;100.00;101154.03;4989893;28;20854;-82
2024/02/21 04:19:21;;;;;;;26.63;13.45;;;;;;;8.67;100.00;101143.59;4994242;28;20060;-82
2024/02/21 04:21:47;;;;;;;27.38;14.02;;;;;;;8.69;100.00;101141.84;5014496;28;20045;-84
2024/02/21 04:24:14;;;;;;;24.92;11.40;;;;;;;8.65;100.00;101129.63;5011299;28;20044;-84
2024/02/21 04:26:40;;;;;;;30.92;12.82;;;;;;;8.70;100.00;101124.47;5026821;28;20045;-81
2024/02/21 04:29:07;;;;;;;23.48;13.00;;;;;;;8.67;100.00;101121.81;5004175;28;20415;-83
2024/02/21 04:31:34;;;;;;;23.92;15.40;;;;;;;8.67;100.00;101133.16;5027986;28;20037;-82
2024/02/21 04:34:00;;;;;;;27.52;13.73;;;;;;;8.62;100.00;101132.22;5028034;28;20400;-82
2024/02/21 04:36:27;;;;;;;29.02;13.52;;;;;;;8.63;100.00;101134.00;5011777;28;20099;-83
2024/02/21 04:38:53;;;;;;;27.20;14.35;;;;;;;8.57;100.00;101136.56;5000738;28;20055;-83
2024/02/21 04:41:20;;;;;;;24.73;13.85;;;;;;;8.58;100.00;101126.13;5015947;28;20047;-84
2024/02/21 04:43:47;;;;;;;31.10;14.48;;;;;;;8.58;100.00;101125.25;5042935;28;20096;-81
2024/02/21 04:46:15;;;;;;;28.30;14.23;;;;;;;8.58;100.00;101126.13;5031363;28;20041;-82
2024/02/21 04:48:42;;;;;;;29.98;13.88;;;;;;;8.56;100.00;101125.22;5032453;28;20045;-84
2024/02/21 04:51:09;;;;;;;27.65;14.60;;;;;;;8.56;100.00;101125.22;5007017;28;20041;-82
2024/02/21 04:53:35;;;;;;;27.13;13.90;;;;;;;8.58;100.00;101133.94;4980674;28;20081;-83
2024/02/21 04:56:04;;;;;;;23.98;13.85;;;;;;;8.60;100.00;101141.78;5047334;28;20063;-83
2024/02/21 04:58:30;;;;;;;26.67;14.10;;;;;;;8.57;100.00;101136.56;5049376;28;20064;-82
2024/02/21 05:00:58;;;;;;;28.30;16.65;;;;;;;8.53;100.00;101133.03;5018099;28;20036;-82
2024/02/21 05:03:24;;;;;;;30.27;14.88;;;;;;;8.57;100.00;101131.31;4998633;28;20575;-82
2024/02/21 05:05:53;;;;;;;32.67;15.13;;;;;;;8.49;100.00;101126.06;4994656;28;20072;-82
2024/02/21 05:08:22;;;;;;;32.05;15.35;;;;;;;8.54;100.00;101132.19;4999804;28;20072;-82
2024/02/21 05:10:48;;;;;;;33.33;15.80;;;;;;;8.52;100.00;101130.41;5009273;28;20046;-81
2024/02/21 05:13:15;;;;;;;30.42;14.73;;;;;;;8.52;100.00;101120.84;4999977;28;20076;-83
2024/02/21 05:15:42;;;;;;;24.38;15.00;;;;;;;8.49;100.00;101122.59;5013520;28;20045;-81
2024/02/21 05:18:08;;;;;;;29.13;14.23;;;;;;;8.53;100.00;101119.13;4997971;28;20045;-80
2024/02/21 05:20:35;;;;;;;27.45;15.35;;;;;;;8.50;100.00;101111.25;4979964;28;20164;-82
2024/02/21 05:23:02;;;;;;;29.15;15.23;;;;;;;8.48;100.00;101115.63;5023524;28;20053;-82
2024/02/21 05:25:29;;;;;;;31.08;15.13;;;;;;;8.49;100.00;101119.97;4977191;28;20427;-82
2024/02/21 05:27:55;;;;;;;23.58;14.20;;;;;;;8.51;100.00;101121.69;4975784;28;20132;-82
2024/02/21 05:30:23;;;;;;;27.58;15.32;;;;;;;8.48;100.00;101111.25;4994116;28;20046;-84
2024/02/21 05:32:50;;;;;;;24.58;14.15;;;;;;;8.43;100.00;101111.22;4977015;28;20379;-82
2024/02/21 05:35:17;;;;;;;28.98;14.85;;;;;;;8.41;100.00;101112.06;4990402;28;20061;-82
2024/02/21 05:37:43;;;;;;;25.90;13.73;;;;;;;8.43;100.00;101102.50;5001790;28;20049;-82
2024/02/21 05:40:13;;;;;;;29.13;14.73;;;;;;;8.43;100.00;101115.53;4975408;28;20077;-84
2024/02/21 05:42:39;;;;;;;28.55;15.35;;;;;;;8.36;100.00;101100.72;5003238;28;20048;-84
2024/02/21 05:45:06;;;;;;;22.10;13.38;;;;;;;8.40;100.00;101094.66;4989189;28;20038;-83
2024/02/21 05:47:33;;;;;;;22.45;13.13;;;;;;;8.43;100.00;101113.81;5005712;28;20099;-84
2024/02/21 05:49:59;;;;;;;26.15;13.85;;;;;;;8.42;100.00;101105.94;4980493;28;20579;-82
2024/02/21 05:52:26;;;;;;;21.10;13.07;;;;;;;8.42;100.00;101105.94;4981314;28;20081;-83
2024/02/21 05:54:52;;;;;;;21.23;13.50;;;;;;;8.39;100.00;101104.19;4971448;28;20053;-83
2024/02/21 05:57:19;;;;;;;26.42;14.52;;;;;;;8.33;100.00;101104.16;4979518;28;20052;-80
2024/02/21 05:59:47;;;;;;;22.63;14.48;;;;;;;8.35;100.00;101104.19;4991558;28;20559;-83
2024/02/21 06:02:14;;;;;;;25.40;13.90;;;;;;;8.39;100.00;101100.72;4983252;28;20045;-81
2024/02/21 06:04:42;;;;;;;24.08;12.82;;;;;;;8.34;100.00;101100.69;5019521;28;20073;-83
2024/02/21 06:07:09;;;;;;;24.67;13.95;;;;;;;8.40;100.00;101102.47;4986620;28;20040;-82
2024/02/21 06:09:36;;;;;;;26.30;14.70;;;;;;;8.34;100.00;101097.22;4972795;28;20445;-80
2024/02/21 06:12:08;;;;;;;23.45;13.93;;;;;;;8.30;100.00;101088.47;4977461;28;20049;-80
2024/02/21 06:14:35;;;;;;;24.80;13.23;;;;;;;8.36;100.00;101096.34;5017532;28;20099;-81
2024/02/21 06:17:02;;;;;;;24.45;14.27;;;;;;;8.35;100.00;101099.81;5007290;28;20553;-80
2024/02/21 06:19:28;;;;;;;24.45;13.85;;;;;;;8.41;100.00;101088.56;4984977;28;20568;-81
2024/02/21 06:21:55;;;;;;;23.40;12.85;;;;;;;8.36;100.00;101096.34;5002887;28;20045;-81
2024/02/21 06:24:21;;;;;;;25.38;15.85;;;;;;;8.37;100.00;101078.97;5008425;28;20050;-84
2024/02/21 06:26:48;;;;;;;21.85;14.10;;;;;;;8.34;100.00;101078.94;5014592;28;20144;-82
2024/02/21 06:29:15;;;;;;;25.50;13.60;;;;;;;8.37;100.00;101081.56;5012626;28;20531;-81
2024/02/21 06:31:42;;;;;;;21.08;13.30;;;;;;;8.31;100.00;101069.38;4990860;28;20042;-83
2024/02/21 06:34:08;;;;;;;26.33;14.18;;;;;;;8.38;100.00;101072.88;4996784;28;20042;-84
2024/02/21 06:36:35;;;;;;;25.27;14.15;;;;;;;8.34;100.00;101073.72;5012141;28;20042;-81
2024/02/21 06:39:07;;;;;;;21.98;13.95;;;;;;;8.31;100.00;101071.13;5011200;28;20050;-83
2024/02/21 06:41:34;;;;;;;30.23;13.65;;;;;;;8.28;100.00;101069.34;4995238;28;20124;-85
2024/02/21 06:44:04;;;;;;;21.13;13.90;;;;;;;8.28;100.00;101067.59;4976946;28;20057;-81
2024/02/21 06:46:32;;;;;;;22.95;12.80;;;;;;;8.27;100.00;101075.44;5015185;28;20064;-81
2024/02/21 06:49:03;;;;;;;24.63;13.82;;;;;;;8.32;100.00;101073.72;5008745;28;20571;-83
2024/02/21 06:51:30;;;;;;;30.13;14.23;;;;;;;8.36;100.00;101077.25;5006459;28;20202;-83
2024/02/21 06:53:57;;;;;;;21.50;13.35;;;;;;;8.37;100.00;101072.03;4989015;28;20041;-83
2024/02/21 06:56:28;;;;;;;29.75;14.07;;;;;;;8.34;100.00;101078.94;4994689;28;20045;-83
2024/02/21 06:58:59;;;;;;;25.80;12.68;;;;;;;8.30;100.00;101080.66;4992904;28;20041;-84
2024/02/21 07:01:26;;;;;;;23.65;13.95;;;;;;;8.24;100.00;101078.03;5016068;28;20564;-83
2024/02/21 07:03:52;;;;;;;24.08;13.63;;;;;;;8.31;100.00;101079.78;4990661;28;20455;-83
2024/02/21 07:06:19;;;;;;;23.60;14.07;;;;;;;8.31;100.00;101086.75;5009230;28;20064;-81
2024/02/21 07:08:47;;;;;;;21.13;12.63;;;;;;;8.26;100.00;101073.69;5020576;28;20060;-83
2024/02/21 07:11:15;;;;;;;23.13;14.00;;;;;;;8.28;100.00;101072.81;5010673;28;20033;-81
2024/02/21 07:13:42;;;;;;;20.45;13.98;;;;;;;8.27;100.00;101070.22;4992082;28;20065;-82
2024/02/21 07:16:08;;;;;;;25.08;13.05;;;;;;;8.32;100.00;101085.88;5023388;28;20041;-82
2024/02/21 07:18:35;;;;;;;24.92;12.40;;;;;;;8.35;100.00;101080.69;5011387;28;20051;-83
2024/02/21 07:21:02;;;;;;;29.02;11.60;;;;;;;8.34;100.00;101071.97;5031941;28;20067;-82
2024/02/21 07:23:28;;;;;;;19.85;12.38;;;;;;;8.42;100.00;101072.03;4990808;28;20056;-82
2024/02/21 07:25:55;;;;;;;21.45;12.68;;;;;;;8.44;100.00;101072.94;5032663;28;20311;-81
2024/02/21 07:28:21;;;;;;;25.17;12.38;;;;;;;8.46;100.00;101073.88;5009322;28;20044;-81
2024/02/21 07:30:48;;;;;;;20.52;12.30;;;;;;;8.39;100.00;101064.19;4995559;28;20144;-82
2024/02/21 07:33:15;;;;;;;23.88;12.75;;;;;;;8.43;100.00;101068.56;5011745;28;20041;-81
2024/02/21 07:35:41;;;;;;;21.80;11.32;;;;;;;8.47;100.00;101069.50;5015623;28;20448;-82
2024/02/21 07:38:12;;;;;;;19.63;12.20;;;;;;;8.49;100.00;101073.88;4989878;28;20133;-82
2024/02/21 07:40:39;;;;;;;17.10;11.93;;;;;;;8.48;100.00;101073.88;5004241;28;20049;-82
2024/02/21 07:43:05;;;;;;;22.63;13.07;;;;;;;8.51;100.00;101079.09;5010302;28;20064;-82
2024/02/21 07:45:32;;;;;;;18.95;11.52;;;;;;;8.46;100.00;101067.75;5010094;28;21281;-83
2024/02/21 07:47:58;;;;;;;15.43;11.27;;;;;;;8.48;100.00;101084.31;4995699;28;20080;-83
2024/02/21 07:50:25;;;;;;;20.33;11.05;;;;;;;8.49;100.00;101080.84;5021095;28;20056;-82
2024/02/21 07:52:51;;;;;;;21.58;12.07;;;;;;;8.53;100.00;101080.00;4990900;28;20050;-81
2024/02/21 07:55:18;;;;;;;16.00;11.10;;;;;;;8.54;100.00;101084.31;5011529;28;20049;-83
2024/02/21 07:57:44;;;;;;;21.85;12.50;;;;;;;8.55;100.00;101073.03;5022040;28;20134;-82
2024/02/21 08:00:19;;;;;;;23.73;12.30;;;;;;;8.57;100.00;101071.31;5014030;28;20050;-82
2024/02/21 08:02:50;;;;;;;27.00;12.15;;;;;;;8.60;100.00;101071.31;4998792;28;20056;-81
2024/02/21 08:05:16;;;;;;;23.77;10.88;;;;;;;8.63;100.00;101073.97;5007341;28;20132;-81
2024/02/21 08:07:43;;;;;;;16.77;9.63;;;;;;;8.74;100.00;101066.19;5011637;28;20049;-82
2024/02/21 08:10:09;;;;;;;18.50;11.23;;;;;;;8.78;100.00;101070.56;4995964;28;20049;-82
2024/02/21 08:12:36;;;;;;;20.13;11.88;;;;;;;8.80;100.00;101061.00;5011304;28;20056;-83
2024/02/21 08:15:04;;;;;;;20.13;10.88;;;;;;;8.80;100.00;101062.72;4992852;28;20054;-82
2024/02/21 08:17:30;;;;;;;24.52;10.07;;;;;;;8.74;100.00;101068.78;4995253;28;20048;-82
2024/02/21 08:19:57;;;;;;;16.38;10.43;;;;;;;8.76;100.00;101073.16;5018873;28;20049;-82
2024/02/21 08:22:23;;;;;;;21.42;10.35;;;;;;;8.79;100.00;101072.31;4998079;28;20046;-83
2024/02/21 08:24:50;;;;;;;17.55;11.18;;;;;;;8.80;100.00;101067.94;4998139;28;20041;-84
2024/02/21 08:27:16;;;;;;;23.02;10.40;;;;;;;8.85;100.00;101066.22;4998501;28;20133;-82
2024/02/21 08:29:43;;;;;;;19.55;10.48;;;;;;;8.86;100.00;101055.78;5010045;28;20045;-83
2024/02/21 08:32:09;;;;;;;15.77;10.05;;;;;;;8.89;100.00;101052.31;5008940;28;20030;-82
2024/02/21 08:34:36;;;;;;;19.20;9.75;;;;;;;8.94;100.00;101053.22;5012908;28;20051;-82
2024/02/21 08:37:02;;;;;;;17.58;10.75;;;;;;;8.91;100.00;101050.59;5013207;28;20045;-82
2024/02/21 08:39:30;;;;;;;20.52;9.90;;;;;;;8.85;100.00;101047.94;4995449;28;20471;-81
2024/02/21 08:41:57;;;;;;;23.10;10.75;;;;;;;8.91;100.00;101042.78;5012706;28;20856;-83
2024/02/21 08:44:25;;;;;;;22.70;10.27;;;;;;;8.99;100.00;101038.44;5041661;28;20504;-83
2024/02/21 08:46:52;;;;;;;13.85;8.70;;;;;;;8.98;100.00;101035.81;5006018;28;20097;-84
2024/02/21 08:49:18;;;;;;;17.48;9.68;;;;;;;9.09;100.00;101026.31;5013536;28;20069;-83
2024/02/21 08:51:46;;;;;;;21.35;8.50;;;;;;;9.13;100.00;101022.81;5010821;28;20033;-81
2024/02/21 08:54:13;;;;;;;19.98;8.25;;;;;;;9.18;100.00;101023.72;5036677;28;20092;-82
2024/02/21 08:56:39;;;;;;;19.77;8.68;;;;;;;9.32;100.00;101015.03;4988414;28;20046;-82
2024/02/21 08:59:06;;;;;;;16.52;8.75;;;;;;;9.28;100.00;101019.38;4991622;28;20106;-82
2024/02/21 09:01:34;;;;;;;12.75;8.00;;;;;;;9.34;100.00;101021.13;5032521;28;20038;-81
2024/02/21 09:04:00;;;;;;;14.35;7.68;;;;;;;9.26;100.00;101019.38;4980738;28;20103;-82
2024/02/21 09:06:28;;;;;;;13.35;7.60;;;;;;;9.26;100.00;101016.75;5008608;28;20045;-82
2024/02/21 09:08:55;;;;;;;16.02;7.60;;;;;;;9.36;100.00;101012.44;5029429;28;20133;-83
2024/02/21 09:11:21;;;;;;;20.25;8.05;;;;;;;9.35;100.00;101007.22;5027763;28;20049;-82
2024/02/21 09:13:50;;;;;;;11.15;6.25;;;;;;;9.39;100.00;101007.19;4994686;28;20044;-83
2024/02/21 09:16:17;;;;;;;12.38;6.78;;;;;;;9.52;100.00;101012.47;5018277;28;20140;-82
2024/02/21 09:18:46;;;;;;;10.82;6.63;;;;;;;9.56;100.00;101015.06;5009731;28;20133;-82
2024/02/21 09:21:13;;;;;;;9.63;5.65;;;;;;;9.55;100.00;101002.00;4989236;28;20034;-82
2024/02/21 09:23:39;;;;;;;13.55;5.47;;;;;;;9.73;100.00;101003.75;4992616;28;20149;-81
2024/02/21 09:26:06;;;;;;;10.95;5.38;;;;;;;10.03;100.00;101000.25;5037085;28;20393;-82
2024/02/21 09:28:34;;;;;;;14.75;6.32;;;;;;;9.95;100.00;101002.00;5041869;28;20369;-82
2024/02/21 09:31:01;;;;;;;14.63;6.15;;;;;;;10.02;99.84;100997.63;4993211;28;20133;-81
2024/02/21 09:33:28;;;;;;;7.40;5.68;;;;;;;10.05;98.93;100989.78;5038299;28;20041;-83
2024/02/21 09:35:54;;;;;;;13.25;6.03;;;;;;;10.05;98.53;100988.06;4996096;28;20050;-82
2024/02/21 09:38:21;;;;;;;12.70;5.78;;;;;;;9.96;98.10;100988.06;4997027;28;20136;-81
2024/02/21 09:40:47;;;;;;;12.77;6.22;;;;;;;10.05;97.94;100989.78;5038585;28;20124;-82
2024/02/21 09:43:20;;;;;;;12.07;5.80;;;;;;;10.05;97.57;100989.78;4993846;28;20412;-84
2024/02/21 09:45:48;;;;;;;7.95;4.78;;;;;;;9.91;95.46;100985.44;5008486;28;20049;-82
2024/02/21 09:48:46;;;;;;;13.27;5.45;;;;;;;9.85;94.08;100977.59;5009874;28;20056;-83
2024/02/21 09:51:15;;;;;;;8.73;4.93;;;;;;;9.91;93.12;100988.06;5037088;28;20053;-82
2024/02/21 09:53:44;;;;;;;12.23;5.43;;;;;;;10.05;92.70;100988.06;5027311;28;20088;-82
2024/02/21 09:56:11;;;;;;;8.40;4.88;;;;;;;10.31;91.12;100988.88;5012061;28;20099;-82
2024/02/21 09:58:39;;;;;;;9.82;4.68;;;;;;;10.24;89.37;100988.00;5026036;28;20052;-81
2024/02/21 10:01:06;;;;;;;5.82;4.25;;;;;;;10.20;88.98;100981.91;5028157;28;20033;-82
2024/02/21 10:03:36;;;;;;;7.97;4.07;;;;;;;10.30;88.37;100980.16;4993494;28;20046;-81
2024/02/21 10:06:02;;;;;;;16.98;5.35;;;;;;;10.27;88.03;100988.88;5004655;28;20125;-82
2024/02/21 10:08:29;;;;;;;9.75;4.60;;;;;;;10.18;88.19;100995.88;5019726;28;20064;-82
2024/02/21 10:10:59;;;;;;;8.48;4.72;;;;;;;10.20;88.23;100989.75;5038345;28;20398;-84
2024/02/21 10:13:30;;;;;;;7.18;4.70;;;;;;;10.06;87.67;100989.81;5022527;28;20216;-82
2024/02/21 10:16:05;;;;;;;7.18;4.10;;;;;;;10.00;88.41;100973.22;4987322;28;20045;-83
2024/02/21 10:18:32;;;;;;;7.47;3.75;;;;;;;10.05;87.22;100972.34;4989998;28;20052;-81
2024/02/21 10:21:07;;;;;;;5.10;3.88;;;;;;;10.10;86.84;100961.88;5025365;28;20136;-83
2024/02/21 10:23:53;;;;;;;8.02;4.30;;;;;;;10.26;86.88;100967.97;5011225;28;20052;-81
2024/02/21 10:26:21;;;;;;;15.75;4.57;;;;;;;10.29;87.00;100957.47;4991496;28;20620;-81
2024/02/21 10:28:51;;;;;;;10.63;4.57;;;;;;;10.19;87.62;100950.53;5035133;28;20050;-83
2024/02/21 10:31:28;;;;;;;9.82;4.40;;;;;;;10.35;87.11;100940.88;5007843;28;20516;-81
2024/02/21 10:34:03;;;;;;;11.23;5.88;;;;;;;10.38;86.60;100944.38;5027287;28;20045;-81
2024/02/21 10:36:30;;;;;;;8.77;3.67;;;;;;;10.39;85.69;100935.66;4997345;28;20153;-81
2024/02/21 10:38:57;;;;;;;7.07;4.15;;;;;;;10.50;84.90;100943.47;5004183;28;20034;-83
2024/02/21 10:41:25;;;;;;;8.07;3.63;;;;;;;10.59;82.48;100935.56;4982305;28;20076;-83
2024/02/21 10:43:56;;;;;;;6.97;3.28;;;;;;;10.65;81.81;100920.72;5021809;28;20075;-81
2024/02/21 10:46:25;;;;;;;9.52;3.20;;;;;;;10.87;81.63;100924.09;4989080;28;20037;-83
2024/02/21 10:49:25;;;;;;;7.70;3.70;;;;;;;10.83;80.06;100915.38;5005318;28;20099;-82
2024/02/21 10:52:14;;;;;;;6.75;3.17;;;;;;;10.82;79.99;100915.38;4991208;28;20140;-82
2024/02/21 10:54:56;;;;;;;6.88;3.47;;;;;;;10.88;79.81;100915.34;4991084;28;20049;-81
2024/02/21 10:57:23;;;;;;;3.70;2.10;;;;;;;10.75;78.66;100918.06;5021676;28;20559;-81
2024/02/21 10:59:51;;;;;;;8.27;4.20;;;;;;;10.74;77.97;100910.19;5025049;28;20078;-84
2024/02/21 11:02:18;;;;;;;6.40;2.20;;;;;;;10.88;77.23;100902.25;4994482;28;20041;-81
2024/02/21 11:04:45;;;;;;;8.10;3.65;;;;;;;10.82;78.41;100910.16;4984641;28;20052;-80
2024/02/21 11:07:12;;;;;;;6.90;2.58;;;;;;;11.08;77.37;100904.75;5016755;28;20045;-81
2024/02/21 11:09:38;;;;;;;5.47;2.75;;;;;;;11.24;76.68;100888.03;4995823;28;20057;-81
2024/02/21 11:12:08;;;;;;;5.40;3.65;;;;;;;11.07;75.79;100874.22;4998959;28;20100;-80
2024/02/21 11:14:37;;;;;;;12.60;3.45;;;;;;;11.09;75.85;100880.28;5007745;28;20046;-82